createdAt,value
2023-03-14T05:05:10.741Z,0.857143
2023-03-14T05:06:10.790Z,0.857143
2023-03-14T05:07:12.618Z,0.857143
2023-03-14T05:08:10.866Z,1.71429
2023-03-14T05:09:10.901Z,1.71429
2023-03-14T05:10:10.928Z,2.5
2023-03-14T05:11:10.953Z,2.5
2023-03-14T05:12:10.997Z,3.35714
2023-03-14T05:13:11.065Z,4.21429
2023-03-14T05:14:11.085Z,5
2023-03-14T05:15:11.120Z,6.71429
2023-03-14T05:16:11.224Z,8.35714
2023-03-14T05:17:11.188Z,9.21429
2023-03-14T05:18:11.229Z,10
2023-03-14T05:19:11.267Z,11.7143
2023-03-14T05:20:11.309Z,12.5
2023-03-14T05:21:11.338Z,13.3571
2023-03-14T05:22:11.378Z,13.3571
2023-03-14T05:23:11.430Z,13.3571
2023-03-14T05:24:11.450Z,13.3571
2023-03-14T05:25:11.511Z,13.3571
2023-03-14T05:26:11.530Z,15
2023-03-14T05:27:11.553Z,15.8571
2023-03-14T05:28:11.585Z,17.5
2023-03-14T05:29:11.619Z,18.3571
2023-03-14T05:30:11.660Z,20.8571
2023-03-14T05:31:11.771Z,22.5
2023-03-14T05:32:11.741Z,24.2143
2023-03-14T05:33:11.793Z,25.8571
2023-03-14T05:34:11.806Z,27.5
2023-03-14T05:35:11.839Z,30
2023-03-14T05:36:11.944Z,34.2143
2023-03-14T05:37:11.932Z,40
2023-03-14T05:38:11.980Z,42.5
2023-03-14T05:39:11.994Z,48.3571
2023-03-14T05:40:12.015Z,50.8571
2023-03-14T05:41:12.071Z,55
2023-03-14T05:42:12.100Z,65
2023-03-14T05:43:12.145Z,76.7143
2023-03-14T05:44:12.174Z,84.2143
2023-03-14T05:45:12.227Z,106.714
2023-03-14T05:46:12.288Z,134.214
2023-03-14T05:47:12.271Z,143.357
2023-03-14T05:48:12.320Z,165
2023-03-14T05:49:12.347Z,189.214
2023-03-14T05:50:12.415Z,198.357
2023-03-14T05:51:12.422Z,200.857
2023-03-14T05:52:12.476Z,223.357
2023-03-14T05:53:12.495Z,232.5
2023-03-14T05:54:12.523Z,267.5
2023-03-14T05:55:12.576Z,233.357
2023-03-14T05:56:12.609Z,260.857
2023-03-14T05:57:12.633Z,315
2023-03-14T05:58:12.671Z,277.5
2023-03-14T05:59:12.695Z,294.214
2023-03-14T06:00:12.718Z,344.214
2023-03-14T06:01:12.761Z,354.214
2023-03-14T06:02:12.818Z,363.357
2023-03-14T06:03:13.012Z,369.214
2023-03-14T06:04:12.858Z,373.357
2023-03-14T06:05:12.935Z,441.714
2023-03-14T06:06:12.940Z,494.214
2023-03-14T06:07:12.980Z,492.5
2023-03-14T06:08:13.011Z,500
2023-03-14T06:09:13.050Z,515.857
2023-03-14T06:10:13.084Z,558.357
2023-03-14T06:11:13.116Z,614.214
2023-03-14T06:12:13.172Z,719.214
2023-03-14T06:13:13.211Z,853.357
2023-03-14T06:14:13.235Z,988.357
2023-03-14T06:15:13.267Z,1055.86
2023-03-14T06:16:13.356Z,945
2023-03-14T06:17:13.339Z,732.5
2023-03-14T06:18:13.408Z,769.214
2023-03-14T06:19:13.412Z,872.5
2023-03-14T06:20:13.454Z,901.714
2023-03-14T06:21:13.486Z,965
2023-03-14T06:22:13.528Z,1017.5
2023-03-14T06:23:13.576Z,1027.5
2023-03-14T06:24:13.616Z,1104.21
2023-03-14T06:25:13.635Z,1284.21
2023-03-14T06:26:13.657Z,1462.5
2023-03-14T06:27:13.704Z,1390.86
2023-03-14T06:28:13.730Z,1113.36
2023-03-14T06:29:13.787Z,1058.36
2023-03-14T06:30:13.829Z,1048.36
2023-03-14T06:31:13.903Z,1165.86
2023-03-14T06:32:13.881Z,1321.71
2023-03-14T06:33:13.924Z,1370
2023-03-14T06:34:13.969Z,1102.5
2023-03-14T06:35:14.009Z,1041.71
2023-03-14T06:36:14.056Z,1148.36
2023-03-14T06:37:14.068Z,1211.71
2023-03-14T06:38:14.108Z,1241.71
2023-03-14T06:39:14.131Z,1270.86
2023-03-14T06:40:14.185Z,1324.21
2023-03-14T06:41:14.210Z,1448.36
2023-03-14T06:42:14.242Z,1464.21
2023-03-14T06:43:14.287Z,1449.21
2023-03-14T06:44:14.322Z,1508.36
2023-03-14T06:45:14.369Z,1552.5
2023-03-14T06:46:14.481Z,1610
2023-03-14T06:47:14.419Z,1693.36
2023-03-14T06:48:14.468Z,1775.86
2023-03-14T06:49:14.501Z,1751.71
2023-03-14T06:50:14.531Z,1724.21
2023-03-14T06:51:14.595Z,2188.36
2023-03-14T06:52:14.612Z,1521.71
2023-03-14T06:53:14.650Z,1681.71
2023-03-14T06:54:14.685Z,1885
2023-03-14T06:55:14.723Z,2277.5
2023-03-14T06:56:14.769Z,2671.71
2023-03-14T06:57:14.798Z,2507.5
2023-03-14T06:58:14.822Z,2429.21
2023-03-14T06:59:14.869Z,2686.71
2023-03-14T07:00:14.914Z,2470.86
2023-03-14T07:01:14.967Z,2402.5
2023-03-14T07:02:14.983Z,2549.21
2023-03-14T07:03:15.029Z,1944.21
2023-03-14T07:04:15.099Z,2012.5
2023-03-14T07:05:15.103Z,1461.71
2023-03-14T07:06:15.131Z,1343.36
2023-03-14T07:07:15.181Z,1353.36
2023-03-14T07:08:15.232Z,1540
2023-03-14T07:09:15.247Z,1622.5
2023-03-14T07:10:15.275Z,1515
2023-03-14T07:11:15.314Z,1320
2023-03-14T07:12:15.334Z,1268.36
2023-03-14T07:13:15.385Z,1055
2023-03-14T07:14:15.448Z,1018.36
2023-03-14T07:15:19.101Z,1069.21
2023-03-14T07:16:15.540Z,1241.71
2023-03-14T07:17:15.534Z,1587.5
2023-03-14T07:18:15.559Z,1713.36
2023-03-14T07:19:15.614Z,1670
2023-03-14T07:20:15.655Z,1702.5
2023-03-14T07:21:15.677Z,1635
2023-03-14T07:22:15.698Z,1466.71
2023-03-14T07:23:15.736Z,1840.86
2023-03-14T07:24:15.767Z,2367.5
2023-03-14T07:25:15.818Z,2332.5
2023-03-14T07:26:15.838Z,1976.71
2023-03-14T07:27:15.873Z,1813.36
2023-03-14T07:28:15.941Z,1903.36
2023-03-14T07:29:15.952Z,1658.36
2023-03-14T07:30:15.985Z,1292.5
2023-03-14T07:31:16.045Z,1028.36
2023-03-14T07:32:16.068Z,887.5
2023-03-14T07:33:16.110Z,890
2023-03-14T07:34:16.143Z,2531.71
2023-03-14T07:35:16.162Z,2725.86
2023-03-14T07:36:16.201Z,2792.5
2023-03-14T07:37:16.242Z,2073.36
2023-03-14T07:38:16.270Z,2235.86
2023-03-14T07:39:16.316Z,3701.71
2023-03-14T07:40:16.467Z,5686.71
2023-03-14T07:41:16.374Z,6883.36
2023-03-14T07:42:16.413Z,6356.71
2023-03-14T07:43:16.442Z,4574.21
2023-03-14T07:44:16.478Z,3802.5
2023-03-14T07:45:16.537Z,2850.86
2023-03-14T07:46:16.562Z,3026.71
2023-03-14T07:47:16.589Z,2986.71
2023-03-14T07:48:16.628Z,2558.36
2023-03-14T07:49:16.649Z,2103.36
2023-03-14T07:50:16.691Z,2236.71
2023-03-14T07:51:16.720Z,2770.86
2023-03-14T07:52:16.760Z,2798.36
2023-03-14T07:53:16.809Z,2639.21
2023-03-14T07:54:16.845Z,3179.21
2023-03-14T07:55:16.861Z,3259.21
2023-03-14T07:56:16.904Z,3186.71
2023-03-14T07:57:16.932Z,3150.86
2023-03-14T07:58:16.975Z,2540.86
2023-03-14T07:59:17.022Z,2507.5
2023-03-14T08:00:17.059Z,2268.36
2023-03-14T08:01:17.079Z,2319.21
2023-03-14T08:02:17.164Z,2301.71
2023-03-14T08:03:17.150Z,2321.71
2023-03-14T08:04:17.236Z,2291.71
2023-03-14T08:05:17.233Z,2400.86
2023-03-14T08:06:17.271Z,2291.71
2023-03-14T08:07:17.297Z,1880.86
2023-03-14T08:08:17.327Z,1361.71
2023-03-14T08:09:17.360Z,1397.5
2023-03-14T08:10:17.418Z,1445.86
2023-03-14T08:11:17.457Z,2182.5
2023-03-14T08:12:17.478Z,1867.5
2023-03-14T08:13:17.521Z,1613.36
2023-03-14T08:14:17.556Z,1460.86
2023-03-14T08:15:17.582Z,1130
2023-03-14T08:16:17.666Z,1438.36
2023-03-14T08:17:17.662Z,1900.86
2023-03-14T08:18:17.719Z,1342.5
2023-03-14T08:19:17.729Z,862.5
2023-03-14T08:20:17.752Z,1005.86
2023-03-14T08:21:17.806Z,987.5
2023-03-14T08:22:19.846Z,1639.21
2023-03-14T08:23:17.879Z,1222.5
2023-03-14T08:24:17.940Z,1010.86
2023-03-14T08:25:17.957Z,977.5
2023-03-14T08:26:17.968Z,946.714
2023-03-14T08:27:18.013Z,1108.36
2023-03-14T08:28:18.073Z,1067.5
2023-03-14T08:29:18.115Z,755
2023-03-14T08:30:18.192Z,647.5
2023-03-14T08:31:18.305Z,724.214
2023-03-14T08:32:18.194Z,610
2023-03-14T08:33:18.238Z,614.214
2023-03-14T08:34:18.272Z,614.214
2023-03-14T08:35:18.457Z,547.5
2023-03-14T08:36:20.821Z,560.857
2023-03-14T08:37:26.265Z,546.714
2023-03-14T08:38:18.417Z,483.357
2023-03-14T08:39:18.503Z,553.357
2023-03-14T08:40:18.477Z,785.857
2023-03-14T08:41:18.521Z,1108.36
2023-03-14T08:42:18.540Z,1497.5
2023-03-14T08:43:18.610Z,1374.21
2023-03-14T08:44:20.704Z,940.857
2023-03-14T08:45:18.645Z,701.714
2023-03-14T08:46:18.766Z,1529.21
2023-03-14T08:47:18.886Z,2284.21
2023-03-14T08:48:18.750Z,2278.36
2023-03-14T08:49:18.817Z,2055.86
2023-03-14T08:50:18.856Z,2535
2023-03-14T08:51:18.852Z,2673.36
2023-03-14T08:52:18.885Z,2641.71
2023-03-14T08:53:18.948Z,2784.21
2023-03-14T08:54:18.954Z,3355.86
2023-03-14T08:55:19.032Z,3740
2023-03-14T08:56:19.052Z,4003.36
2023-03-14T08:57:19.065Z,4275.86
2023-03-14T08:58:19.106Z,3906.71
2023-03-14T08:59:19.151Z,4168.36
2023-03-14T09:00:19.199Z,4638.36
2023-03-14T09:01:19.532Z,4764.21
2023-03-14T09:02:19.253Z,4340
2023-03-14T09:03:19.358Z,4076.71
2023-03-14T09:04:19.408Z,3033.36
2023-03-14T09:05:19.351Z,4194.21
2023-03-14T09:06:19.410Z,2815
2023-03-14T09:07:19.431Z,2284.21
2023-03-14T09:08:19.485Z,2379.21
2023-03-14T09:09:19.496Z,3366.71
2023-03-14T09:10:19.533Z,2692.5
2023-03-14T09:11:19.581Z,1634.21
2023-03-14T09:12:19.599Z,1040
2023-03-14T09:13:19.640Z,1025.86
2023-03-14T09:14:21.884Z,1020
2023-03-14T09:15:19.704Z,1044.21
2023-03-14T09:16:19.866Z,1086.71
2023-03-14T09:17:19.788Z,1038.36
2023-03-14T09:18:19.824Z,1305.86
2023-03-14T09:19:19.854Z,2808.36
2023-03-14T09:20:19.870Z,2081.71
2023-03-14T09:21:19.932Z,1700.86
2023-03-14T09:22:19.951Z,1697.5
2023-03-14T09:23:20.006Z,3925.86
2023-03-14T09:24:20.032Z,4471.71
2023-03-14T09:25:20.053Z,4946.71
2023-03-14T09:26:20.074Z,3964.21
2023-03-14T09:27:20.113Z,4816.71
2023-03-14T09:28:20.153Z,5272.5
2023-03-14T09:29:20.179Z,4315
2023-03-14T09:30:20.273Z,4530
2023-03-14T09:31:20.298Z,4470.86
2023-03-14T09:32:20.349Z,4092.5
2023-03-14T09:33:20.322Z,2818.36
2023-03-14T09:34:20.366Z,2155.86
2023-03-14T09:35:20.492Z,2065.86
2023-03-14T09:36:20.455Z,2227.5
2023-03-14T09:37:20.468Z,2382.5
2023-03-14T09:38:20.501Z,2065
2023-03-14T09:39:20.539Z,2631.71
2023-03-14T09:40:20.592Z,2069.21
2023-03-14T09:41:20.625Z,1899.21
2023-03-14T09:42:20.666Z,1871.71
2023-03-14T09:43:20.684Z,2477.5
2023-03-14T09:44:20.717Z,2890.86
2023-03-14T09:45:22.691Z,3325
2023-03-14T09:46:20.912Z,2967.5
2023-03-14T09:47:20.862Z,1997.5
2023-03-14T09:48:20.898Z,1746.71
2023-03-14T09:49:20.892Z,1655
2023-03-14T09:50:21.017Z,2285
2023-03-14T09:51:20.969Z,2370
2023-03-14T09:52:20.996Z,3299.21
2023-03-14T09:53:21.052Z,2609.21
2023-03-14T09:54:21.079Z,2401.71
2023-03-14T09:55:21.094Z,2776.71
2023-03-14T09:56:21.135Z,3556.71
2023-03-14T09:57:21.182Z,3141.71
2023-03-14T09:58:21.225Z,2147.5
2023-03-14T09:59:21.301Z,2290.86
2023-03-14T10:00:21.329Z,1971.71
2023-03-14T10:01:21.365Z,2010
2023-03-14T10:02:21.356Z,1980
2023-03-14T10:03:21.390Z,2080
2023-03-14T10:04:21.438Z,2465
2023-03-14T10:05:21.490Z,3344.21
2023-03-14T10:06:21.522Z,3637.5
2023-03-14T10:07:21.526Z,3135
2023-03-14T10:08:21.564Z,2522.5
2023-03-14T10:09:21.591Z,2445.86
2023-03-14T10:10:21.625Z,2364.21
2023-03-14T10:11:21.716Z,2630
2023-03-14T10:12:21.719Z,2909.21
2023-03-14T10:13:21.754Z,2440.86
2023-03-14T10:14:21.773Z,1935.86
2023-03-14T10:15:21.811Z,2014.21
2023-03-14T10:16:21.939Z,2668.36
2023-03-14T10:17:21.882Z,2565
2023-03-14T10:18:21.959Z,2060.86
2023-03-14T10:19:21.945Z,1936.71
2023-03-14T10:20:21.993Z,2130.86
2023-03-14T10:21:22.034Z,1647.5
2023-03-14T10:22:22.080Z,1440
2023-03-14T10:23:22.220Z,1555.86
2023-03-14T10:24:22.161Z,1681.71
2023-03-14T10:25:22.167Z,1236.71
2023-03-14T10:26:22.199Z,979.214
2023-03-14T10:27:22.237Z,1714.21
2023-03-14T10:28:22.289Z,2463.36
2023-03-14T10:29:22.363Z,2442.5
2023-03-14T10:30:22.350Z,2383.36
2023-03-14T10:31:22.378Z,1557.5
2023-03-14T10:32:22.516Z,1610.86
2023-03-14T10:33:22.451Z,1245.86
2023-03-14T10:34:22.515Z,2042.5
2023-03-14T10:35:22.552Z,2700
2023-03-14T10:36:22.648Z,2624.21
2023-03-14T10:37:22.606Z,2696.71
2023-03-14T10:38:22.626Z,2683.36
2023-03-14T10:39:22.667Z,2431.71
2023-03-14T10:40:22.743Z,2458.36
2023-03-14T10:41:22.734Z,2450
2023-03-14T10:42:22.789Z,2269.21
2023-03-14T10:43:22.802Z,2018.36
2023-03-14T10:44:22.844Z,2284.21
2023-03-14T10:45:22.929Z,2494.21
2023-03-14T10:46:23.001Z,2217.5
2023-03-14T10:47:22.948Z,2043.36
2023-03-14T10:48:22.970Z,1917.5
2023-03-14T10:49:23.010Z,2119.21
2023-03-14T10:50:23.066Z,2425
2023-03-14T10:51:23.095Z,2146.71
2023-03-14T10:52:26.354Z,1775
2023-03-14T10:53:23.158Z,1505
2023-03-14T10:54:23.257Z,1582.5
2023-03-14T10:55:23.235Z,1414.21
2023-03-14T10:56:23.269Z,1330.86
2023-03-14T10:57:23.289Z,1385
2023-03-14T10:58:23.372Z,1455.86
2023-03-14T10:59:23.378Z,1546.71
2023-03-14T11:00:23.439Z,1838.36
2023-03-14T11:01:23.490Z,1836.71
2023-03-14T11:02:23.480Z,1783.36
2023-03-14T11:03:23.516Z,1998.36
2023-03-14T11:04:23.615Z,2027.5
2023-03-14T11:05:23.610Z,2070
2023-03-14T11:06:23.614Z,1884.21
2023-03-14T11:07:23.651Z,1667.5
2023-03-14T11:08:23.700Z,1420
2023-03-14T11:09:23.717Z,1270
2023-03-14T11:10:23.743Z,1490
2023-03-14T11:11:23.780Z,1483.36
2023-03-14T11:12:23.823Z,1331.71
2023-03-14T11:13:23.882Z,1194.21
2023-03-14T11:14:26.211Z,1734.21
2023-03-14T11:15:23.920Z,2064.21
2023-03-14T11:16:23.959Z,2065
2023-03-14T11:17:24.012Z,1846.71
2023-03-14T11:18:24.038Z,1764.21
2023-03-14T11:19:24.146Z,1864.21
2023-03-14T11:20:24.118Z,1410.86
2023-03-14T11:21:24.140Z,1636.71
2023-03-14T11:22:24.186Z,2335.86
2023-03-14T11:23:24.214Z,1884.21
2023-03-14T11:24:24.247Z,2023.36
2023-03-14T11:25:24.320Z,2188.36
2023-03-14T11:26:24.321Z,1659.21
2023-03-14T11:27:24.354Z,1639.21
2023-03-14T11:28:24.392Z,2218.36
2023-03-14T11:29:24.435Z,2235.86
2023-03-14T11:30:26.527Z,2026.71
2023-03-14T11:31:24.643Z,1559.21
2023-03-14T11:32:24.560Z,1208.36
2023-03-14T11:33:24.559Z,1202.5
2023-03-14T11:34:24.609Z,1449.21
2023-03-14T11:35:24.660Z,2085.86
2023-03-14T11:36:24.678Z,2342.5
2023-03-14T11:37:24.690Z,2210
2023-03-14T11:38:24.725Z,2541.71
2023-03-14T11:39:24.756Z,2688.36
2023-03-14T11:40:24.819Z,2595.86
2023-03-14T11:41:24.895Z,2766.71
2023-03-14T11:42:24.860Z,2333.36
2023-03-14T11:43:24.898Z,2065.86
2023-03-14T11:44:24.923Z,1948.36
2023-03-14T11:45:24.967Z,1748.36
2023-03-14T11:46:25.135Z,2043.36
2023-03-14T11:47:25.046Z,1795.86
2023-03-14T11:48:25.078Z,1762.5
2023-03-14T11:49:25.097Z,2089.21
2023-03-14T11:50:25.134Z,1867.5
2023-03-14T11:51:25.182Z,1610
2023-03-14T11:52:25.202Z,1766.71
2023-03-14T11:53:25.228Z,1910.86
2023-03-14T11:54:25.270Z,2354.21
2023-03-14T11:55:25.311Z,3430
2023-03-14T11:56:25.367Z,3768.36
2023-03-14T11:57:25.383Z,3516.71
2023-03-14T11:58:25.419Z,3050.86
2023-03-14T11:59:25.453Z,2681.71
2023-03-14T12:00:25.511Z,2630
2023-03-14T12:01:25.534Z,2433.36
2023-03-14T12:02:25.620Z,2331.71
2023-03-14T12:03:25.647Z,2143.36
2023-03-14T12:04:25.701Z,2306.71
2023-03-14T12:05:25.662Z,2200
2023-03-14T12:06:25.699Z,1852.5
2023-03-14T12:07:25.744Z,2219.21
2023-03-14T12:08:25.807Z,2149.21
2023-03-14T12:09:25.808Z,1785.86
2023-03-14T12:10:25.845Z,1825.86
2023-03-14T12:11:25.883Z,2444.21
2023-03-14T12:12:25.941Z,2750
2023-03-14T12:13:25.970Z,3457.5
2023-03-14T12:14:25.988Z,3755
2023-03-14T12:15:26.020Z,3605
2023-03-14T12:16:26.140Z,3625
2023-03-14T12:17:26.120Z,3459.21
2023-03-14T12:18:26.133Z,3715.86
2023-03-14T12:19:26.155Z,3565
2023-03-14T12:20:26.198Z,3270
2023-03-14T12:21:26.267Z,2905.86
2023-03-14T12:22:26.270Z,3888.36
2023-03-14T12:23:26.300Z,3236.71
2023-03-14T12:24:26.336Z,2605.86
2023-03-14T12:25:26.412Z,1839.21
2023-03-14T12:26:26.405Z,2406.71
2023-03-14T12:27:26.438Z,2748.36
2023-03-14T12:28:26.476Z,2403.36
2023-03-14T12:29:26.507Z,2395.86
2023-03-14T12:30:26.583Z,2481.71
2023-03-14T12:31:26.604Z,1950
2023-03-14T12:32:26.720Z,1697.5
2023-03-14T12:33:26.654Z,2050
2023-03-14T12:34:26.718Z,2600.86
2023-03-14T12:35:26.820Z,2893.36
2023-03-14T12:36:26.769Z,3096.71
2023-03-14T12:37:26.802Z,2971.71
2023-03-14T12:38:26.839Z,2049.21
2023-03-14T12:39:26.881Z,1838.36
2023-03-14T12:40:26.938Z,1862.5
2023-03-14T12:41:26.925Z,2312.5
2023-03-14T12:42:29.689Z,2698.36
2023-03-14T12:43:27.003Z,1531.71
2023-03-14T12:44:27.035Z,1936.71
2023-03-14T12:45:27.086Z,4281.71
2023-03-14T12:46:27.305Z,3905
2023-03-14T12:47:27.147Z,4074.21
2023-03-14T12:48:27.178Z,3579.21
2023-03-14T12:49:27.224Z,3303.36
2023-03-14T12:50:27.245Z,2890
2023-03-14T12:51:27.313Z,2668.36
2023-03-14T12:52:27.321Z,2340
2023-03-14T12:53:27.360Z,2484.21
2023-03-14T12:54:27.400Z,2835
2023-03-14T12:55:27.436Z,2818.36
2023-03-14T12:56:27.501Z,2697.5
2023-03-14T12:57:27.515Z,2877.5
2023-03-14T12:58:27.551Z,2633.36
2023-03-14T12:59:27.580Z,2836.71
2023-03-14T13:00:27.715Z,3146.71
2023-03-14T13:01:27.718Z,3299.21
2023-03-14T13:02:27.685Z,2560
2023-03-14T13:03:27.782Z,2118.36
2023-03-14T13:04:36.849Z,1736.71
2023-03-14T13:05:27.815Z,2233.36
2023-03-14T13:06:27.853Z,1802.5
2023-03-14T13:07:27.877Z,1405
2023-03-14T13:08:27.891Z,1884.21
2023-03-14T13:09:27.978Z,2512.5
2023-03-14T13:10:27.995Z,2521.71
2023-03-14T13:11:28.015Z,2664.21
2023-03-14T13:12:28.067Z,2747.5
2023-03-14T13:13:28.089Z,2490.86
2023-03-14T13:14:28.204Z,1595
2023-03-14T13:15:28.155Z,995
2023-03-14T13:16:28.220Z,983.357
2023-03-14T13:17:34.450Z,981.714
2023-03-14T13:18:28.293Z,866.714
2023-03-14T13:19:28.315Z,844.214
2023-03-14T13:20:28.350Z,930
2023-03-14T13:21:28.396Z,914.214
2023-03-14T13:22:28.414Z,801.714
2023-03-14T13:23:28.456Z,675.857
2023-03-14T13:24:28.479Z,658.357
2023-03-14T13:25:28.553Z,781.714
2023-03-14T13:26:28.548Z,972.5
2023-03-14T13:27:28.588Z,932.5
2023-03-14T13:28:28.799Z,1029.21
2023-03-14T13:29:28.661Z,1305.86
2023-03-14T13:30:28.853Z,1532.5
2023-03-14T13:31:28.714Z,1270
2023-03-14T13:32:28.816Z,1441.71
2023-03-14T13:33:28.790Z,1853.36
2023-03-14T13:34:28.853Z,2384.21
2023-03-14T13:35:28.972Z,2470.86
2023-03-14T13:36:28.940Z,2220
2023-03-14T13:37:28.942Z,2388.36
2023-03-14T13:38:28.987Z,2493.36
2023-03-14T13:39:29.007Z,2300.86
2023-03-14T13:40:29.043Z,2155.86
2023-03-14T13:41:29.100Z,1638.36
2023-03-14T13:42:29.128Z,1313.36
2023-03-14T13:43:29.154Z,1297.5
2023-03-14T13:44:29.182Z,1018.36
2023-03-14T13:45:29.216Z,1110
2023-03-14T13:46:29.324Z,1406.71
2023-03-14T13:47:29.295Z,1580
2023-03-14T13:48:29.329Z,1441.71
2023-03-14T13:49:29.367Z,1386.71
2023-03-14T13:50:29.407Z,1843.36
2023-03-14T13:51:29.553Z,2660
2023-03-14T13:52:29.877Z,2492.5
2023-03-14T13:53:29.511Z,2303.36
2023-03-14T13:54:29.538Z,2241.71
2023-03-14T13:55:29.574Z,2069.21
2023-03-14T13:56:29.612Z,2040.86
2023-03-14T13:57:29.673Z,2317.5
2023-03-14T13:58:29.714Z,2001.71
2023-03-14T13:59:29.711Z,1310.86
2023-03-14T14:00:30.008Z,804.214
2023-03-14T14:01:29.810Z,945.857
2023-03-14T14:02:29.812Z,1570
2023-03-14T14:03:29.874Z,1770
2023-03-14T14:04:29.896Z,1619.21
2023-03-14T14:05:29.926Z,1746.71
2023-03-14T14:06:29.979Z,2024.21
2023-03-14T14:07:29.998Z,1777.5
2023-03-14T14:08:30.012Z,2090.86
2023-03-14T14:09:30.052Z,1655.86
2023-03-14T14:10:30.103Z,1409.21
2023-03-14T14:11:42.703Z,1253.36
2023-03-14T14:12:30.176Z,1257.5
2023-03-14T14:13:30.202Z,1369.21
2023-03-14T14:14:30.253Z,1285
2023-03-14T14:15:30.255Z,1053.36
2023-03-14T14:16:30.415Z,962.5
2023-03-14T14:17:30.327Z,793.357
2023-03-14T14:18:30.364Z,1047.5
2023-03-14T14:19:30.422Z,783.357
2023-03-14T14:20:30.433Z,977.5
2023-03-14T14:21:30.474Z,1096.71
2023-03-14T14:22:30.500Z,894.214
2023-03-14T14:23:30.584Z,738.357
2023-03-14T14:24:30.579Z,600.857
2023-03-14T14:25:30.606Z,467.5
2023-03-14T14:26:30.646Z,485
2023-03-14T14:27:30.684Z,732.5
2023-03-14T14:28:30.803Z,953.357
2023-03-14T14:29:30.745Z,1062.5
2023-03-14T14:30:30.784Z,1055.86
2023-03-14T14:31:30.928Z,1429.21
2023-03-14T14:32:30.889Z,1050.86
2023-03-14T14:33:30.997Z,602.5
2023-03-14T14:34:30.913Z,509.214
2023-03-14T14:35:30.964Z,542.5
2023-03-14T14:36:31.002Z,690
2023-03-14T14:37:31.032Z,558.357
2023-03-14T14:38:31.073Z,525.857
2023-03-14T14:39:31.102Z,533.357
2023-03-14T14:40:31.143Z,539.214
2023-03-14T14:41:31.175Z,589.214
2023-03-14T14:42:31.245Z,680
2023-03-14T14:43:31.249Z,699.214
2023-03-14T14:44:31.284Z,838.357
2023-03-14T14:45:31.320Z,956.714
2023-03-14T14:46:31.385Z,1095
2023-03-14T14:47:31.430Z,934.214
2023-03-14T14:48:31.449Z,1132.5
2023-03-14T14:49:31.457Z,1038.36
2023-03-14T14:50:31.523Z,518.357
2023-03-14T14:51:31.518Z,255.857
2023-03-14T14:52:31.560Z,213.357
2023-03-14T14:53:31.616Z,195
2023-03-14T14:54:31.651Z,176.714
2023-03-14T14:55:31.678Z,283.357
2023-03-14T14:56:31.709Z,362.5
2023-03-14T14:57:31.747Z,279.214
2023-03-14T14:58:31.772Z,148.357
2023-03-14T14:59:31.853Z,73.3571
2023-03-14T15:00:31.873Z,62.5
2023-03-14T15:01:31.932Z,62.5
2023-03-14T15:02:31.961Z,66.7143
2023-03-14T15:03:31.961Z,85
2023-03-14T15:04:31.974Z,103.357
2023-03-14T15:05:32.022Z,123.357
2023-03-14T15:06:32.092Z,151.714
2023-03-14T15:07:32.089Z,156.714
2023-03-14T15:08:32.111Z,172.5
2023-03-14T15:09:32.186Z,181.714
2023-03-14T15:10:32.226Z,175
2023-03-14T15:11:32.244Z,176.714
2023-03-14T15:12:32.261Z,196.714
2023-03-14T15:13:32.300Z,200.857
2023-03-14T15:14:32.330Z,254.214
2023-03-14T15:15:32.371Z,276.714
2023-03-14T15:16:32.475Z,276.714
2023-03-14T15:17:32.448Z,334.214
2023-03-14T15:18:32.511Z,320
2023-03-14T15:19:32.514Z,351.714
2023-03-14T15:20:32.556Z,336.714
2023-03-14T15:21:32.596Z,333.357
2023-03-14T15:22:32.628Z,301.714
2023-03-14T15:23:32.686Z,290
2023-03-14T15:24:32.727Z,237.5
2023-03-14T15:25:51.804Z,213.357
2023-03-14T15:26:32.770Z,231.714
2023-03-14T15:27:32.805Z,184.214
2023-03-14T15:28:32.830Z,153.357
2023-03-14T15:29:32.881Z,141.714
2023-03-14T15:30:33.005Z,119.214
2023-03-14T15:31:33.005Z,120.857
2023-03-14T15:32:33.108Z,113.357
2023-03-14T15:33:33.002Z,125
2023-03-14T15:34:33.041Z,120.857
2023-03-14T15:35:33.250Z,132.5
2023-03-14T15:36:33.143Z,129.214
2023-03-14T15:37:33.159Z,145
2023-03-14T15:38:33.194Z,141.714
2023-03-14T15:39:33.239Z,113.357
2023-03-14T15:40:33.277Z,112.5
2023-03-14T15:41:33.353Z,101.714
2023-03-14T15:42:33.372Z,93.3571
2023-03-14T15:43:33.380Z,89.2143
2023-03-14T15:44:33.411Z,87.5
2023-03-14T15:45:33.453Z,76.7143
2023-03-14T15:46:33.487Z,70
2023-03-14T15:47:33.621Z,62.5
2023-03-14T15:48:33.557Z,58.3571
2023-03-14T15:49:33.573Z,60.8571
2023-03-14T15:50:33.618Z,54.2143
2023-03-14T15:51:33.648Z,53.3571
2023-03-14T15:52:33.673Z,66.7143
2023-03-14T15:53:33.731Z,74.2143
2023-03-14T15:54:33.797Z,87.5
2023-03-14T15:55:33.782Z,92.5
2023-03-14T15:56:33.824Z,97.5
2023-03-14T15:57:33.856Z,107.5
2023-03-14T15:58:33.894Z,100.857
2023-03-14T15:59:33.953Z,95
2023-03-14T16:00:34.345Z,85.8571
2023-03-14T16:01:34.161Z,79.2143
2023-03-14T16:02:34.027Z,70.8571
2023-03-14T16:03:34.072Z,63.3571
2023-03-14T16:04:34.164Z,60.8571
2023-03-14T16:05:34.173Z,56.7143
2023-03-14T16:06:34.254Z,53.3571
2023-03-14T16:07:34.224Z,50
2023-03-14T16:08:34.269Z,51.7143
2023-03-14T16:09:34.302Z,51.7143
2023-03-14T16:10:34.357Z,50.8571
2023-03-14T16:11:34.408Z,54.2143
2023-03-14T16:12:34.449Z,55
2023-03-14T16:13:34.473Z,55.8571
2023-03-14T16:14:34.516Z,55.8571
2023-03-14T16:15:34.553Z,59.2143
2023-03-14T16:16:34.712Z,65.8571
2023-03-14T16:17:34.631Z,72.5
2023-03-14T16:18:34.664Z,80
2023-03-14T16:19:34.686Z,84.2143
2023-03-14T16:20:47.061Z,85.8571
2023-03-14T16:21:34.780Z,91.7143
2023-03-14T16:22:34.795Z,98.3571
2023-03-14T16:23:34.869Z,104.214
2023-03-14T16:24:34.868Z,110.857
2023-03-14T16:25:34.903Z,116.714
2023-03-14T16:26:34.966Z,131.714
2023-03-14T16:27:34.965Z,145.857
2023-03-14T16:28:35.010Z,147.5
2023-03-14T16:29:35.040Z,152.5
2023-03-14T16:30:35.166Z,149.214
2023-03-14T16:31:35.193Z,156.714
2023-03-14T16:32:35.494Z,164.214
2023-03-14T16:33:35.197Z,173.357
2023-03-14T16:34:35.232Z,184.214
2023-03-14T16:35:35.300Z,198.357
2023-03-14T16:36:35.338Z,202.5
2023-03-14T16:37:35.343Z,197.5
2023-03-14T16:38:35.392Z,184.214
2023-03-14T16:39:51.040Z,185.857
2023-03-14T16:40:35.454Z,175.857
2023-03-14T16:41:35.528Z,157.5
2023-03-14T16:42:35.542Z,152.5
2023-03-14T16:43:35.567Z,136.714
2023-03-14T16:44:35.605Z,120
2023-03-14T16:45:35.642Z,115.857
2023-03-14T16:46:35.763Z,100.857
2023-03-14T16:47:35.715Z,97.5
2023-03-14T16:48:35.756Z,88.3571
2023-03-14T16:49:35.792Z,80.8571
2023-03-14T16:50:35.830Z,74.2143
2023-03-14T16:51:35.903Z,69.2143
2023-03-14T16:52:35.906Z,60.8571
2023-03-14T16:53:35.958Z,51.7143
2023-03-14T16:54:35.987Z,47.5
2023-03-14T16:55:36.025Z,40
2023-03-14T16:56:36.074Z,39.2143
2023-03-14T16:57:36.103Z,36.7143
2023-03-14T16:58:36.146Z,29.2143
2023-03-14T16:59:36.181Z,28.3571
2023-03-14T17:00:36.240Z,24.2143
2023-03-14T17:01:36.296Z,24.2143
2023-03-14T17:02:36.290Z,21.7143
2023-03-14T17:03:36.365Z,18.3571
2023-03-14T17:04:36.360Z,15
2023-03-14T17:05:36.433Z,13.3571
2023-03-14T17:06:36.466Z,13.3571
2023-03-14T17:07:36.481Z,13.3571
2023-03-14T17:08:36.510Z,10
2023-03-14T17:09:36.563Z,8.35714
2023-03-14T17:10:38.764Z,5.85714
2023-03-14T17:11:36.645Z,5
2023-03-14T17:12:36.668Z,4.21429
2023-03-14T17:13:36.717Z,5
2023-03-14T17:14:36.751Z,4.21429
2023-03-14T17:15:36.891Z,4.21429
2023-03-14T17:16:36.861Z,3.35714
2023-03-14T17:17:36.840Z,2.5
2023-03-14T17:18:36.898Z,2.5
2023-03-14T17:19:36.912Z,2.5
2023-03-14T17:20:36.965Z,2.5
2023-03-14T17:21:37.004Z,0.857143
2023-03-14T17:22:37.023Z,1.71429
2023-03-14T17:23:37.070Z,0.857143
